Kaneville, Illinois
Current Conditions -  °F | °C
As of 8:52 AM on Sunday 21 Dec 2014 (Local Time) from KARR Reporting Station
Haze Haze  
Wind Chill: 27°   Ceiling: 2500
Heat Index: 34°   Visibility: 4mi
Dew Point: 28°   Wind: 9mph
Humidity: 79%   Direction: 150°SSE
Pressure: 30.19"   Gusts: NA
Location:  41.84°N, 88.52°W
Report Text: KARR 211452Z 15008KT 4SM HZ FEW017 OVC025 01/M02 A3019 RMK AO2 SLP230 T00111022 58004
Loading
Personal Weather Stations






























Interactive Weather Map New forecast layout! Learn more

10-Day Weather Forecast

Advertisements
Track Severe Weather on mobile